Terminal Aerodrome Forecast
Issued by NWS Cleveland, OH

Home | Current Version | Previous Version | Text Only | Print | Product List | Glossary Off
Versions: 1 2 3 4 5 6 7 8 9 10 11 12 13 14 15 16

000
FTUS41 KCLE 171133
TAFMFD
TAF
KMFD 171133Z 1712/1812 18008KT P6SM BKN100
     FM171300 20010KT P6SM SCT025 OVC080
      TEMPO 1713/1717 3SM -TSRA OVC025CB
     FM171700 20010G20KT P6SM SCT030 BKN050
      TEMPO 1717/1721 3SM -TSRA OVC030CB
     FM172100 20010G20KT P6SM VCTS SCT040CB BKN060
     FM180100 22008KT P6SM SCT060 BKN200=

USA.gov is the U.S. government's official web portal to all federal, state and local government web resources and services.